createdAt,value
2019-03-05T00:01:17.594Z,1.70
2019-03-05T00:03:47.179Z,0.98
2019-03-05T00:06:16.788Z,0.98
2019-03-05T00:08:46.384Z,0.98
2019-03-05T00:11:15.959Z,1.15
2019-03-05T00:13:45.631Z,1.10
2019-03-05T00:16:15.211Z,1.12
2019-03-05T00:18:44.904Z,1.17
2019-03-05T00:21:14.482Z,1.00
2019-03-05T00:23:46.505Z,1.00
2019-03-05T00:26:18.231Z,1.27
2019-03-05T00:28:56.586Z,1.00
2019-03-05T00:31:29.222Z,1.20
2019-03-05T00:34:07.596Z,0.98
2019-03-05T00:36:40.931Z,1.20
2019-03-05T00:39:28.342Z,1.07
2019-03-05T00:42:06.572Z,0.70
2019-03-05T00:44:57.430Z,1.10
2019-03-05T00:47:49.663Z,1.50
2019-03-05T00:50:43.409Z,0.90
2019-03-05T00:56:13.158Z,0.90
2019-03-05T00:59:03.707Z,1.00
2019-03-05T01:01:42.279Z,0.80
2019-03-05T01:04:40.454Z,0.93
2019-03-05T01:07:10.078Z,1.07
2019-03-05T01:09:39.676Z,0.85
2019-03-05T01:12:09.781Z,0.95
2019-03-05T01:14:39.456Z,1.00
2019-03-05T01:17:09.104Z,1.20
2019-03-05T01:19:38.697Z,1.20
2019-03-05T01:22:08.286Z,1.82
2019-03-05T01:24:37.875Z,1.70
2019-03-05T01:27:07.570Z,1.40
2019-03-05T01:29:37.166Z,1.42
2019-03-05T01:32:24.895Z,1.20
2019-03-05T01:34:56.145Z,1.40
2019-03-05T01:37:25.794Z,1.50
2019-03-05T01:40:00.177Z,1.72
2019-03-05T01:42:29.982Z,1.57
2019-03-05T01:44:59.576Z,1.37
2019-03-05T01:47:29.149Z,1.45
2019-03-05T01:49:58.818Z,1.70
2019-03-05T01:52:28.404Z,1.92
2019-03-05T01:54:58.002Z,1.40
2019-03-05T01:57:27.583Z,1.67
2019-03-05T01:59:57.183Z,0.90
2019-03-05T02:02:26.774Z,1.27
2019-03-05T02:04:56.387Z,1.50
2019-03-05T02:07:26.022Z,1.25
2019-03-05T02:09:56.099Z,1.50
2019-03-05T02:12:25.683Z,1.30
2019-03-05T02:14:55.277Z,1.20
2019-03-05T02:17:24.858Z,1.35
2019-03-05T02:19:54.454Z,1.40
2019-03-05T02:22:27.106Z,1.65
2019-03-05T02:25:05.326Z,1.40
2019-03-05T02:28:03.954Z,1.35
2019-03-05T02:30:55.972Z,1.32
2019-03-05T02:33:34.649Z,1.37
2019-03-05T02:36:31.017Z,1.02
2019-03-05T02:39:06.140Z,1.27
2019-03-05T02:41:44.580Z,1.95
2019-03-05T02:44:32.047Z,1.32
2019-03-05T02:47:21.353Z,1.45
2019-03-05T02:50:06.167Z,1.95
2019-03-05T02:52:54.101Z,1.20
2019-03-05T02:55:32.305Z,2.27
2019-03-05T02:58:00.810Z,1.57
2019-03-05T03:00:32.035Z,1.80
2019-03-05T03:03:18.483Z,1.55
2019-03-05T03:05:49.763Z,1.72
2019-03-05T03:08:19.359Z,1.20
2019-03-05T03:10:48.943Z,1.10
2019-03-05T03:13:18.547Z,1.70
2019-03-05T03:15:48.135Z,1.17
2019-03-05T03:18:17.731Z,1.40
2019-03-05T03:20:47.309Z,1.42
2019-03-05T03:23:16.915Z,1.60
2019-03-05T03:25:46.503Z,1.30
2019-03-05T03:28:16.102Z,2.00
2019-03-05T03:30:45.702Z,1.42
2019-03-05T03:33:15.568Z,2.15
2019-03-05T03:35:45.156Z,1.70
2019-03-05T03:38:14.753Z,1.47
2019-03-05T03:40:44.348Z,1.60
2019-03-05T03:43:14.016Z,2.12
2019-03-05T03:45:43.609Z,1.70
2019-03-05T03:48:13.289Z,1.70
2019-03-05T03:50:42.891Z,1.82
2019-03-05T03:53:12.478Z,1.65
2019-03-05T03:55:42.071Z,2.05
2019-03-05T03:58:12.025Z,1.57
2019-03-05T04:00:41.615Z,1.45
2019-03-05T04:03:11.189Z,1.50
2019-03-05T04:05:40.792Z,1.25
2019-03-05T04:08:10.686Z,1.55
2019-03-05T04:10:40.462Z,1.70
2019-03-05T04:13:10.040Z,1.77
2019-03-05T04:15:39.640Z,2.10
2019-03-05T04:18:09.297Z,1.70
2019-03-05T04:20:40.548Z,1.47
2019-03-05T04:23:10.132Z,1.40
2019-03-05T04:25:39.795Z,1.42
2019-03-05T04:28:09.387Z,1.72
2019-03-05T04:30:38.998Z,1.42
2019-03-05T04:33:08.612Z,1.60
2019-03-05T04:35:38.211Z,1.22
2019-03-05T04:38:07.783Z,1.00
2019-03-05T04:40:37.379Z,1.30
2019-03-05T04:43:06.962Z,0.93
2019-03-05T04:45:56.129Z,1.10
2019-03-05T04:48:25.695Z,1.00
2019-03-05T04:50:59.623Z,0.88
2019-03-05T04:53:29.209Z,0.60
2019-03-05T04:55:58.880Z,0.60
2019-03-05T04:58:28.458Z,0.88
2019-03-05T05:00:58.135Z,1.02
2019-03-05T05:03:27.719Z,1.57
2019-03-05T05:05:57.397Z,0.80
2019-03-05T05:08:26.966Z,1.30
2019-03-05T05:10:56.643Z,1.32
2019-03-05T05:13:26.231Z,1.02
2019-03-05T05:15:55.843Z,0.80
2019-03-05T05:18:25.419Z,1.27
2019-03-05T05:20:55.011Z,1.00
2019-03-05T05:23:24.590Z,1.30
2019-03-05T05:25:54.173Z,0.78
2019-03-05T05:28:23.752Z,0.90
2019-03-05T05:30:53.351Z,0.60
2019-03-05T05:33:22.935Z,0.88
2019-03-05T05:35:52.525Z,0.60
2019-03-05T05:38:22.122Z,1.00
2019-03-05T05:40:51.699Z,0.70
2019-03-05T05:43:26.655Z,1.12
2019-03-05T05:45:56.382Z,1.00
2019-03-05T05:48:25.978Z,1.07
2019-03-05T05:50:55.555Z,1.07
2019-03-05T05:53:25.147Z,1.50
2019-03-05T05:55:54.749Z,1.35
2019-03-05T05:58:24.334Z,1.40
2019-03-05T06:00:55.571Z,1.32
2019-03-05T06:03:25.179Z,1.10
2019-03-05T06:05:54.770Z,1.20
2019-03-05T06:08:24.429Z,1.10
2019-03-05T06:10:54.038Z,1.67
2019-03-05T06:13:23.621Z,1.55
2019-03-05T06:15:53.277Z,1.85
2019-03-05T06:18:22.878Z,1.70
2019-03-05T06:20:52.459Z,1.67
2019-03-05T06:23:22.100Z,1.52
2019-03-05T06:25:51.671Z,1.65
2019-03-05T06:28:21.316Z,1.37
2019-03-05T06:30:50.931Z,1.25
2019-03-05T06:33:20.536Z,1.92
2019-03-05T06:35:50.118Z,2.08
2019-03-05T06:38:19.732Z,1.60
2019-03-05T06:40:49.456Z,2.42
2019-03-05T06:43:19.055Z,1.95
2019-03-05T06:45:48.656Z,1.82
2019-03-05T06:48:18.251Z,2.15
2019-03-05T06:50:47.853Z,2.08
2019-03-05T06:53:17.455Z,1.87
2019-03-05T06:55:47.056Z,1.60
2019-03-05T06:58:16.703Z,2.33
2019-03-05T07:00:46.387Z,1.80
2019-03-05T07:03:15.998Z,1.40
2019-03-05T07:06:22.088Z,1.75
2019-03-05T07:09:06.543Z,2.92
2019-03-05T07:11:42.045Z,1.80
2019-03-05T07:14:23.650Z,1.90
2019-03-05T07:16:59.042Z,2.02
2019-03-05T07:19:31.489Z,1.90
2019-03-05T07:22:09.590Z,1.57
2019-03-05T07:24:38.387Z,1.80
2019-03-05T07:27:08.541Z,2.00
2019-03-05T07:29:38.214Z,1.62
2019-03-05T07:32:07.956Z,2.10
2019-03-05T07:34:39.169Z,1.45
2019-03-05T07:37:10.651Z,2.30
2019-03-05T07:39:40.339Z,1.85
2019-03-05T07:42:10.071Z,2.20
2019-03-05T07:44:39.729Z,2.20
2019-03-05T07:47:09.301Z,1.67
2019-03-05T07:49:43.823Z,2.05
2019-03-05T07:52:10.167Z,1.60
2019-03-05T07:54:39.768Z,1.40
2019-03-05T07:57:09.346Z,1.30
2019-03-05T07:59:39.238Z,1.70
2019-03-05T08:02:08.800Z,1.77
2019-03-05T08:04:39.140Z,1.98
2019-03-05T08:07:08.809Z,2.45
2019-03-05T08:09:39.144Z,2.65
2019-03-05T08:12:17.851Z,2.98
2019-03-05T08:14:56.645Z,1.25
2019-03-05T08:17:26.375Z,2.02
2019-03-05T08:19:55.976Z,1.50
2019-03-05T08:22:25.575Z,1.40
2019-03-05T08:24:55.223Z,1.40
2019-03-05T08:27:24.919Z,2.00
2019-03-05T08:29:54.542Z,1.62
2019-03-05T08:32:24.216Z,1.50
2019-03-05T08:34:53.803Z,1.80
2019-03-05T08:37:23.681Z,1.95
2019-03-05T08:39:53.289Z,2.08
2019-03-05T08:42:22.895Z,1.70
2019-03-05T08:44:52.492Z,1.80
2019-03-05T08:47:23.720Z,1.77
2019-03-05T08:49:53.371Z,1.50
2019-03-05T08:52:23.019Z,1.95
2019-03-05T08:54:54.300Z,1.60
2019-03-05T08:57:23.895Z,1.37
2019-03-05T08:59:53.484Z,1.67
2019-03-05T09:02:23.096Z,1.42
2019-03-05T09:04:52.750Z,1.22
2019-03-05T09:07:22.443Z,1.02
2019-03-05T09:09:52.098Z,1.12
2019-03-05T09:12:21.700Z,2.20
2019-03-05T09:14:51.288Z,1.20
2019-03-05T09:17:20.960Z,1.37
2019-03-05T09:19:50.546Z,1.37
2019-03-05T09:22:20.143Z,0.90
2019-03-05T09:24:49.787Z,0.93
2019-03-05T09:27:19.467Z,1.00
2019-03-05T09:29:49.123Z,1.25
2019-03-05T09:32:18.653Z,1.07
2019-03-05T09:34:48.264Z,1.30
2019-03-05T09:37:17.856Z,0.93
2019-03-05T09:39:47.451Z,0.70
2019-03-05T09:42:17.364Z,1.10
2019-03-05T09:44:46.951Z,0.80
2019-03-05T09:47:16.660Z,0.60
2019-03-05T09:49:46.248Z,0.70
2019-03-05T09:52:15.828Z,0.70
2019-03-05T09:54:45.439Z,1.00
2019-03-05T09:57:15.023Z,0.95
2019-03-05T09:59:44.640Z,1.10
2019-03-05T10:02:14.588Z,0.98
2019-03-05T10:04:44.203Z,0.82
2019-03-05T10:07:18.959Z,0.90
2019-03-05T10:09:45.083Z,2.50
2019-03-05T10:12:14.672Z,0.95
2019-03-05T10:14:44.256Z,1.80
2019-03-05T10:17:13.858Z,0.80
2019-03-05T10:19:43.450Z,1.00
2019-03-05T10:22:13.144Z,1.00
2019-03-05T10:24:42.807Z,1.07
2019-03-05T10:27:13.431Z,0.90
2019-03-05T10:29:43.162Z,1.05
2019-03-05T10:32:12.804Z,1.00
2019-03-05T10:34:42.411Z,1.00
2019-03-05T10:37:18.741Z,1.10
2019-03-05T10:39:46.040Z,0.60
2019-03-05T10:42:15.861Z,0.82
2019-03-05T10:44:45.677Z,0.78
2019-03-05T10:47:15.330Z,0.95
2019-03-05T10:49:44.915Z,0.72
2019-03-05T10:52:14.597Z,1.90
2019-03-05T10:54:44.171Z,0.75
2019-03-05T10:57:16.300Z,0.82
2019-03-05T10:59:48.451Z,1.10
2019-03-05T11:02:20.091Z,0.88
2019-03-05T11:04:52.249Z,0.93
2019-03-05T11:07:21.071Z,1.20
2019-03-05T11:09:52.819Z,0.82
2019-03-05T11:12:22.490Z,1.00
2019-03-05T11:14:52.079Z,1.12
2019-03-05T11:17:21.694Z,1.00
2019-03-05T11:19:51.360Z,1.50
2019-03-05T11:22:20.971Z,0.95
2019-03-05T11:24:50.582Z,0.90
2019-03-05T11:27:20.178Z,1.30
2019-03-05T11:29:49.786Z,1.10
2019-03-05T11:32:19.514Z,1.07
2019-03-05T11:34:49.098Z,1.10
2019-03-05T11:37:19.318Z,1.35
2019-03-05T11:39:49.000Z,1.70
2019-03-05T11:42:18.592Z,1.30
2019-03-05T11:44:59.001Z,0.93
2019-03-05T11:47:19.431Z,1.10
2019-03-05T11:49:49.035Z,1.52
2019-03-05T11:52:18.643Z,1.20
2019-03-05T11:54:48.231Z,1.25
2019-03-05T11:57:55.307Z,1.47
2019-03-05T12:00:48.523Z,1.50
2019-03-05T12:03:18.248Z,1.52
2019-03-05T12:05:47.945Z,1.15
2019-03-05T12:08:17.530Z,1.12
2019-03-05T12:10:47.288Z,1.12
2019-03-05T12:13:16.958Z,1.45
2019-03-05T12:15:46.534Z,1.62
2019-03-05T12:18:16.220Z,1.60
2019-03-05T12:20:45.833Z,1.57
2019-03-05T12:23:15.443Z,1.40
2019-03-05T12:25:45.104Z,1.35
2019-03-05T12:28:14.703Z,1.42
2019-03-05T12:30:44.311Z,0.70
2019-03-05T12:33:13.904Z,1.30
2019-03-05T12:35:43.495Z,1.10
2019-03-05T12:38:13.086Z,1.05
2019-03-05T12:40:42.682Z,1.30
2019-03-05T12:43:12.285Z,1.50
2019-03-05T12:45:41.866Z,1.00
2019-03-05T12:48:11.462Z,1.20
2019-03-05T12:50:41.159Z,1.12
2019-03-05T12:53:10.910Z,1.42
2019-03-05T12:55:40.503Z,1.20
2019-03-05T12:58:10.183Z,1.22
2019-03-05T13:00:39.852Z,1.60
2019-03-05T13:03:09.506Z,1.27
2019-03-05T13:05:39.134Z,1.60
2019-03-05T13:08:08.744Z,1.45
2019-03-05T13:10:38.326Z,1.27
2019-03-05T13:13:10.406Z,1.57
2019-03-05T13:15:41.700Z,1.87
2019-03-05T13:18:11.315Z,1.52
2019-03-05T13:20:41.012Z,1.30
2019-03-05T13:23:10.737Z,1.10
2019-03-05T13:25:40.887Z,1.20
2019-03-05T13:28:10.527Z,1.52
2019-03-05T13:30:40.524Z,1.80
2019-03-05T13:33:10.204Z,2.47
2019-03-05T13:35:39.833Z,1.47
2019-03-05T13:38:10.538Z,1.30
2019-03-05T13:40:40.817Z,1.10
2019-03-05T13:43:10.681Z,1.62
2019-03-05T13:45:42.341Z,1.85
2019-03-05T13:48:19.597Z,1.27
2019-03-05T13:51:14.055Z,1.25
2019-03-05T13:54:00.029Z,1.55
2019-03-05T13:56:45.055Z,1.40
2019-03-05T13:59:36.613Z,1.25
2019-03-05T14:02:08.056Z,1.27
2019-03-05T14:04:40.716Z,1.30
2019-03-05T14:07:40.797Z,1.27
2019-03-05T14:10:10.447Z,1.52
2019-03-05T14:12:40.063Z,1.22
2019-03-05T14:15:11.611Z,1.50
2019-03-05T14:17:42.065Z,1.42
2019-03-05T14:20:14.972Z,2.35
2019-03-05T14:22:44.744Z,1.47
2019-03-05T14:25:16.071Z,1.35
2019-03-05T14:27:45.854Z,1.12
2019-03-05T14:30:21.172Z,1.20
2019-03-05T14:32:51.109Z,1.00
2019-03-05T14:35:21.531Z,1.35
2019-03-05T14:37:51.183Z,1.92
2019-03-05T14:40:26.701Z,1.22
2019-03-05T14:42:56.396Z,1.37
2019-03-05T14:45:28.521Z,1.10
2019-03-05T14:47:59.360Z,0.95
2019-03-05T14:50:29.099Z,1.42
2019-03-05T14:52:58.726Z,1.10
2019-03-05T14:55:28.443Z,2.42
2019-03-05T14:57:58.253Z,1.20
2019-03-05T15:00:28.140Z,1.47
2019-03-05T15:02:57.847Z,1.22
2019-03-05T15:05:27.513Z,1.07
2019-03-05T15:07:57.129Z,1.45
2019-03-05T15:10:26.710Z,1.22
2019-03-05T15:12:56.288Z,1.60
2019-03-05T15:15:28.482Z,1.72
2019-03-05T15:18:22.776Z,1.30
2019-03-05T15:20:52.359Z,1.57
2019-03-05T15:23:22.057Z,1.80
2019-03-05T15:28:24.841Z,1.60
2019-03-05T15:30:54.461Z,1.17
2019-03-05T15:33:24.106Z,1.52
2019-03-05T15:35:53.722Z,1.55
2019-03-05T15:38:23.318Z,1.27
2019-03-05T15:40:53.088Z,1.32
2019-03-05T15:43:22.709Z,1.60
2019-03-05T15:45:52.257Z,1.52
2019-03-05T15:48:21.915Z,1.30
2019-03-05T15:50:51.478Z,1.60
2019-03-05T15:53:21.091Z,1.65
2019-03-05T15:55:50.751Z,1.98
2019-03-05T15:58:20.354Z,1.85
2019-03-05T16:00:50.066Z,1.92
2019-03-05T16:03:19.824Z,1.95
2019-03-05T16:05:49.556Z,1.57
2019-03-05T16:08:20.988Z,1.60
2019-03-05T16:10:54.082Z,2.45
2019-03-05T16:13:21.671Z,1.80
2019-03-05T16:15:51.263Z,2.00
2019-03-05T16:18:20.934Z,1.95
2019-03-05T16:20:50.692Z,1.98
2019-03-05T16:23:20.285Z,1.57
2019-03-05T16:25:51.889Z,1.92
2019-03-05T16:28:21.691Z,1.60
2019-03-05T16:30:58.679Z,1.40
2019-03-05T16:33:36.919Z,1.60
2019-03-05T16:36:05.607Z,2.00
2019-03-05T16:38:51.082Z,1.80
2019-03-05T16:41:24.008Z,1.92
2019-03-05T16:44:01.310Z,1.70
2019-03-05T16:46:44.627Z,1.70
2019-03-05T16:49:27.832Z,2.70
2019-03-05T16:51:59.175Z,2.22
2019-03-05T16:54:46.728Z,1.80
2019-03-05T16:57:23.859Z,1.80
2019-03-05T16:59:55.088Z,2.02
2019-03-05T17:02:26.398Z,1.70
2019-03-05T17:04:57.743Z,1.87
2019-03-05T17:07:46.171Z,2.22
2019-03-05T17:10:34.346Z,1.95
2019-03-05T17:13:04.198Z,1.85
2019-03-05T17:15:33.808Z,2.20
2019-03-05T17:18:03.414Z,2.10
2019-03-05T17:20:33.134Z,1.72
2019-03-05T17:23:02.791Z,1.75
2019-03-05T17:25:32.664Z,1.82
2019-03-05T17:28:02.373Z,2.00
2019-03-05T17:30:32.018Z,2.35
2019-03-05T17:33:01.794Z,2.17
2019-03-05T17:35:31.770Z,2.27
2019-03-05T17:38:01.358Z,2.87
2019-03-05T17:40:30.987Z,2.30
2019-03-05T17:43:00.552Z,1.90
2019-03-05T17:45:30.356Z,1.98
2019-03-05T17:47:59.919Z,2.72
2019-03-05T17:50:29.587Z,2.08
2019-03-05T17:52:59.308Z,2.20
2019-03-05T17:55:29.055Z,2.83
2019-03-05T17:57:58.932Z,2.25
2019-03-05T18:00:32.863Z,2.25
2019-03-05T18:03:02.661Z,3.83
2019-03-05T18:05:32.379Z,2.40
2019-03-05T18:08:02.071Z,3.10
2019-03-05T18:10:31.726Z,3.52
2019-03-05T18:13:01.323Z,3.72
2019-03-05T18:15:31.446Z,3.02
2019-03-05T18:18:01.028Z,2.62
2019-03-05T18:20:30.818Z,2.70
2019-03-05T18:23:00.423Z,2.58
2019-03-05T18:25:30.011Z,3.00
2019-03-05T18:27:59.705Z,3.22
2019-03-05T18:30:30.622Z,2.30
2019-03-05T18:33:00.619Z,2.30
2019-03-05T18:35:30.219Z,2.45
2019-03-05T18:37:59.873Z,2.77
2019-03-05T18:40:29.498Z,1.98
2019-03-05T18:42:59.154Z,2.77
2019-03-05T18:45:31.464Z,2.75
2019-03-05T18:48:01.210Z,2.58
2019-03-05T18:50:30.881Z,2.87
2019-03-05T18:53:04.804Z,2.62
2019-03-05T18:55:34.460Z,3.10
2019-03-05T18:58:04.189Z,3.05
2019-03-05T19:00:34.847Z,3.52
2019-03-05T19:03:09.974Z,2.25
2019-03-05T19:05:39.775Z,1.90
2019-03-05T19:08:09.439Z,2.35
2019-03-05T19:10:39.205Z,2.27
2019-03-05T19:13:08.883Z,2.30
2019-03-05T19:15:38.458Z,2.35
2019-03-05T19:18:08.439Z,2.05
2019-03-05T19:20:38.048Z,2.00
2019-03-05T19:23:07.932Z,2.10
2019-03-05T19:25:43.299Z,2.30
2019-03-05T19:28:13.246Z,2.10
2019-03-05T19:30:51.358Z,2.40
2019-03-05T19:33:21.150Z,3.50
2019-03-05T19:35:50.803Z,2.37
2019-03-05T19:38:20.667Z,2.58
2019-03-05T19:40:50.365Z,2.27
2019-03-05T19:43:20.007Z,2.30
2019-03-05T19:45:49.611Z,3.55
2019-03-05T19:48:19.270Z,2.22
2019-03-05T19:50:48.855Z,2.20
2019-03-05T19:53:18.498Z,2.80
2019-03-05T19:55:48.166Z,2.33
2019-03-05T19:58:17.783Z,3.40
2019-03-05T20:00:53.353Z,3.10
2019-03-05T20:03:22.984Z,8.70
2019-03-05T20:05:52.577Z,2.95
2019-03-05T20:08:22.511Z,6.00
2019-03-05T20:10:52.212Z,2.30
2019-03-05T20:13:21.862Z,4.83
2019-03-05T20:15:51.481Z,2.40
2019-03-05T20:18:21.132Z,2.55
2019-03-05T20:20:50.739Z,2.92
2019-03-05T20:23:20.359Z,3.02
2019-03-05T20:25:50.156Z,2.60
2019-03-05T20:28:19.795Z,2.70
2019-03-05T20:30:49.412Z,2.70
2019-03-05T20:33:19.006Z,3.50
2019-03-05T20:35:48.927Z,3.30
2019-03-05T20:38:18.548Z,2.90
2019-03-05T20:40:48.157Z,2.77
2019-03-05T20:43:17.749Z,3.00
2019-03-05T20:45:50.782Z,2.83
2019-03-05T20:48:20.443Z,2.98
2019-03-05T20:50:50.051Z,2.60
2019-03-05T20:53:19.715Z,3.52
2019-03-05T20:55:49.328Z,3.40
2019-03-05T20:58:18.975Z,3.33
2019-03-05T21:00:48.714Z,3.10
2019-03-05T21:03:18.311Z,3.45
2019-03-05T21:05:48.830Z,3.30
2019-03-05T21:08:18.422Z,5.00
2019-03-05T21:10:48.018Z,3.85
2019-03-05T21:13:17.709Z,4.50
2019-03-05T21:15:47.319Z,4.30
2019-03-05T21:18:19.543Z,4.50
2019-03-05T21:20:49.670Z,5.08
2019-03-05T21:23:19.369Z,4.90
2019-03-05T21:25:49.075Z,6.28
2019-03-05T21:28:18.664Z,5.08
2019-03-05T21:30:48.407Z,5.22
2019-03-05T21:33:18.004Z,5.53
2019-03-05T21:35:48.340Z,5.92
2019-03-05T21:38:18.052Z,7.40
2019-03-05T21:40:47.650Z,6.47
2019-03-05T21:43:17.272Z,6.67
2019-03-05T21:45:50.342Z,6.87
2019-03-05T21:48:19.948Z,7.22
2019-03-05T21:50:49.619Z,6.90
2019-03-05T21:53:19.327Z,7.78
2019-03-05T21:55:48.931Z,8.18
2019-03-05T21:58:19.207Z,8.00
2019-03-05T22:00:48.803Z,6.90
2019-03-05T22:03:18.406Z,7.78
2019-03-05T22:05:48.007Z,8.08
2019-03-05T22:08:17.688Z,8.38
2019-03-05T22:10:47.275Z,9.25
2019-03-05T22:13:16.887Z,8.60
2019-03-05T22:15:46.478Z,7.87
2019-03-05T22:18:16.096Z,8.13
2019-03-05T22:20:46.083Z,8.80
2019-03-05T22:23:15.901Z,8.68
2019-03-05T22:25:45.474Z,8.13
2019-03-05T22:28:15.074Z,7.37
2019-03-05T22:30:44.671Z,8.38
2019-03-05T22:33:14.275Z,8.28
2019-03-05T22:35:43.876Z,8.68
2019-03-05T22:38:13.488Z,8.63
2019-03-05T22:40:43.171Z,9.15
2019-03-05T22:43:12.786Z,8.75
2019-03-05T22:45:42.405Z,8.18
2019-03-05T22:48:11.999Z,9.20
2019-03-05T22:50:41.593Z,8.08
2019-03-05T22:53:11.274Z,7.55
2019-03-05T22:55:41.261Z,8.40
2019-03-05T22:58:10.863Z,7.78
2019-03-05T23:00:50.771Z,7.45
2019-03-05T23:03:29.068Z,8.80
2019-03-05T23:05:59.811Z,7.40
2019-03-05T23:08:29.406Z,7.10
2019-03-05T23:10:59.250Z,7.50
2019-03-05T23:13:29.097Z,6.87
2019-03-05T23:15:59.362Z,6.53
2019-03-05T23:18:28.968Z,7.67
2019-03-05T23:20:58.562Z,7.03
2019-03-05T23:23:30.088Z,6.80
2019-03-05T23:25:59.854Z,6.95
2019-03-05T23:28:29.531Z,6.50
2019-03-05T23:30:59.137Z,6.03
2019-03-05T23:33:28.737Z,6.00
2019-03-05T23:35:58.319Z,6.08
2019-03-05T23:38:27.926Z,6.55
2019-03-05T23:40:57.583Z,5.67
2019-03-05T23:43:27.191Z,6.35
2019-03-05T23:45:56.854Z,5.53
2019-03-05T23:48:26.463Z,7.40
2019-03-05T23:50:56.059Z,5.40
2019-03-05T23:53:25.663Z,5.62
2019-03-05T23:55:55.251Z,6.15
2019-03-05T23:58:25.262Z,5.37
